Nyssa, OR (97913)

11:11 AM MST on December 09, 2016 (GMT -0700)
Trail Ridge Subdivision | | Change Station
Active Advisory: Winter Weather Advisory

Elev 2247 ft 43.79 °N, 116.95 °W | Updated 20 seconds ago

Snow
Snow
29.7 °F
Feels Like 30 °F
N
1.1
Wind Variable Wind from East

Today
High -- | Low -- °F
--% Chance of Precip.
Yesterday
High -- | Low -- °F
Precip. -- in
Pressure 30.30 in
Visibility 5.0 miles
Clouds Mostly Cloudy 2200 ft
Mostly Cloudy 7000 ft
Overcast 9000 ft
Windchill 30 °F
Dew Point 25 °F
Humidity 83%
Rainfall 0.00 in
Snow Depth Not available.
8:10 AM 5:10 PM
Waxing Gibbous, 76% visible
METAR KONO 091753Z AUTO 25004KT 5SM -SN BR BKN022 BKN070 OVC090 M03/M05 A3021 RMK AO2 SLP259 P0001 60008 T10331050 11033 21044 53004
Pressure 30.30 in
Visibility 5.0 miles
Clouds Mostly Cloudy 2200 ft
Mostly Cloudy 7000 ft
Overcast 9000 ft
Windchill 30 °F
Dew Point 25 °F
Humidity 83%
Rainfall 0.00 in
Snow Depth Not available.
8:10 AM 5:10 PM
Waxing Gibbous, 76% visible
METAR KONO 091753Z AUTO 25004KT 5SM -SN BR BKN022 BKN070 OVC090 M03/M05 A3021 RMK AO2 SLP259 P0001 60008 T10331050 11033 21044 53004

10-Day Weather Forecast

Almanac

Astronomy

Dec. 09, 2016 Rise Set
Actual Time
Civil Twilight
Nautical Twilight
Astronomical Twilight
Moon
Length of Visible Light
Length of Day
Tomorrow will be .
, % of the Moon is Illuminated

Today's Extremes

State Highs State Lows

Community

WunderPhotos

Upload Photos

1,956,499 photos uploaded!

WunderBlog® & News

Nearby

Air Quality

  Air Quality AQ Index Pollutant
Not available.

Snow Depth

Station Depth Elevation

Earthquake Activity

City Distance Mag. Time & Date
Minimum magnitude displayed is 2.5.

Coastal Water Temperatures

Place Temperature

Stations

Nearby Weather Stations

Station Location Temp. Windchill Dew Point Humidity Wind Precip. Elev Updated Type
                   

Watches & Warnings

Winter Weather Advisory
Issued: 10:54 AM MST Dec. 9, 2016 – National Weather Service

... Winter Weather Advisory remains in effect until 5 PM MST this
afternoon...

* snow amounts... additional 1 to 2 inches. Freezing rain from
Caldwell to Ontario is possible with light ice accumulations.

* Snow levels... valley floors. The snow will mix with or change to
rain below 2500 feet this afternoon.

* Impacts... snow and possible light ice accumulation on roads
will make driving difficult.

Precautionary/preparedness actions...

A Winter Weather Advisory for snow means that periods of snow
will primarily cause travel difficulties. Be prepared for snow
covered roads and limited visibilities... and use caution while
driving. Travel in the mountains and backcountry is not
recommended without proper equipment and adequate provisions.
Remember that cell phone communication is limited by terrain.